sensor_id;sensor_type;location;lat;lon;timestamp;temperature;humidity
22288;DHT22;11312;51.464;6.968;2023-02-15T00:01:08;3.50;86.00
22288;DHT22;11312;51.464;6.968;2023-02-15T00:03:34;3.60;99.90
22288;DHT22;11312;51.464;6.968;2023-02-15T00:06:00;3.50;99.90
22288;DHT22;11312;51.464;6.968;2023-02-15T00:08:25;3.50;99.90
22288;DHT22;11312;51.464;6.968;2023-02-15T00:10:51;3.50;99.90
22288;DHT22;11312;51.464;6.968;2023-02-15T00:13:16;3.50;99.90
22288;DHT22;11312;51.464;6.968;2023-02-15T00:15:42;3.40;99.90
22288;DHT22;11312;51.464;6.968;2023-02-15T00:18:07;3.30;96.90
22288;DHT22;11312;51.464;6.968;2023-02-15T00:20:33;3.20;99.90
22288;DHT22;11312;51.464;6.968;2023-02-15T00:22:59;3.10;99.90
22288;DHT22;11312;51.464;6.968;2023-02-15T00:25:25;3.20;99.90
22288;DHT22;11312;51.464;6.968;2023-02-15T00:27:50;3.20;99.90
22288;DHT22;11312;51.464;6.968;2023-02-15T00:30:16;3.10;99.90
22288;DHT22;11312;51.464;6.968;2023-02-15T00:32:42;3.10;99.90
22288;DHT22;11312;51.464;6.968;2023-02-15T00:35:07;3.20;99.90
22288;DHT22;11312;51.464;6.968;2023-02-15T00:37:34;3.20;99.90
22288;DHT22;11312;51.464;6.968;2023-02-15T00:40:01;3.20;99.90
22288;DHT22;11312;51.464;6.968;2023-02-15T00:42:26;3.10;99.90
22288;DHT22;11312;51.464;6.968;2023-02-15T00:44:52;3.10;99.90
22288;DHT22;11312;51.464;6.968;2023-02-15T00:47:17;3.10;99.90
22288;DHT22;11312;51.464;6.968;2023-02-15T00:49:43;3.10;99.90
22288;DHT22;11312;51.464;6.968;2023-02-15T00:52:09;3.00;99.90
22288;DHT22;11312;51.464;6.968;2023-02-15T00:54:34;3.00;99.90
22288;DHT22;11312;51.464;6.968;2023-02-15T00:57:00;3.00;99.90
22288;DHT22;11312;51.464;6.968;2023-02-15T00:59:26;2.80;99.90
22288;DHT22;11312;51.464;6.968;2023-02-15T01:01:52;2.80;99.90
22288;DHT22;11312;51.464;6.968;2023-02-15T01:04:17;2.80;99.90
22288;DHT22;11312;51.464;6.968;2023-02-15T01:06:43;2.80;99.90
22288;DHT22;11312;51.464;6.968;2023-02-15T01:09:09;2.90;99.90
22288;DHT22;11312;51.464;6.968;2023-02-15T01:11:34;2.80;99.90
22288;DHT22;11312;51.464;6.968;2023-02-15T01:14:00;2.70;99.90
22288;DHT22;11312;51.464;6.968;2023-02-15T01:16:28;2.60;99.90
22288;DHT22;11312;51.464;6.968;2023-02-15T01:18:54;2.70;99.90
22288;DHT22;11312;51.464;6.968;2023-02-15T01:21:24;2.60;99.90
22288;DHT22;11312;51.464;6.968;2023-02-15T01:23:50;2.60;99.90
22288;DHT22;11312;51.464;6.968;2023-02-15T01:26:16;2.70;99.90
22288;DHT22;11312;51.464;6.968;2023-02-15T01:28:42;2.70;99.90
22288;DHT22;11312;51.464;6.968;2023-02-15T01:31:09;2.70;99.90
22288;DHT22;11312;51.464;6.968;2023-02-15T01:33:35;2.70;99.90
22288;DHT22;11312;51.464;6.968;2023-02-15T01:36:01;2.60;99.90
22288;DHT22;11312;51.464;6.968;2023-02-15T01:38:27;2.60;99.90
22288;DHT22;11312;51.464;6.968;2023-02-15T01:40:53;2.60;99.90
22288;DHT22;11312;51.464;6.968;2023-02-15T01:43:19;2.50;99.90
22288;DHT22;11312;51.464;6.968;2023-02-15T01:45:47;2.50;99.90
22288;DHT22;11312;51.464;6.968;2023-02-15T01:48:24;2.60;99.90
22288;DHT22;11312;51.464;6.968;2023-02-15T01:50:55;2.50;99.90
22288;DHT22;11312;51.464;6.968;2023-02-15T01:53:25;2.50;99.90
22288;DHT22;11312;51.464;6.968;2023-02-15T01:56:07;2.40;99.90
22288;DHT22;11312;51.464;6.968;2023-02-15T01:58:36;2.40;99.90
22288;DHT22;11312;51.464;6.968;2023-02-15T02:01:04;2.40;99.90
22288;DHT22;11312;51.464;6.968;2023-02-15T02:03:55;2.40;99.90
22288;DHT22;11312;51.464;6.968;2023-02-15T02:06:21;2.40;99.90
22288;DHT22;11312;51.464;6.968;2023-02-15T02:08:48;2.40;99.90
22288;DHT22;11312;51.464;6.968;2023-02-15T02:11:14;2.40;99.90
22288;DHT22;11312;51.464;6.968;2023-02-15T02:13:42;2.90;99.90
22288;DHT22;11312;51.464;6.968;2023-02-15T02:18:53;2.10;99.90
22288;DHT22;11312;51.464;6.968;2023-02-15T02:21:40;2.10;99.90
22288;DHT22;11312;51.464;6.968;2023-02-15T02:27:30;2.20;99.90
22288;DHT22;11312;51.464;6.968;2023-02-15T02:33:21;2.10;99.90
22288;DHT22;11312;51.464;6.968;2023-02-15T02:36:14;2.10;99.90
22288;DHT22;11312;51.464;6.968;2023-02-15T02:44:17;2.00;99.90
22288;DHT22;11312;51.464;6.968;2023-02-15T02:49:09;2.00;99.90
22288;DHT22;11312;51.464;6.968;2023-02-15T02:51:35;2.00;99.90
22288;DHT22;11312;51.464;6.968;2023-02-15T02:54:05;1.90;99.90
22288;DHT22;11312;51.464;6.968;2023-02-15T02:56:42;1.90;99.90
22288;DHT22;11312;51.464;6.968;2023-02-15T02:59:15;1.90;99.90
22288;DHT22;11312;51.464;6.968;2023-02-15T03:01:54;1.90;99.90
22288;DHT22;11312;51.464;6.968;2023-02-15T03:04:31;1.90;99.90
22288;DHT22;11312;51.464;6.968;2023-02-15T03:06:58;1.80;99.90
22288;DHT22;11312;51.464;6.968;2023-02-15T03:09:28;1.80;99.90
22288;DHT22;11312;51.464;6.968;2023-02-15T03:12:08;1.80;99.90
22288;DHT22;11312;51.464;6.968;2023-02-15T03:14:35;1.80;99.90
22288;DHT22;11312;51.464;6.968;2023-02-15T03:17:02;1.70;99.90
22288;DHT22;11312;51.464;6.968;2023-02-15T03:19:34;1.70;99.90
22288;DHT22;11312;51.464;6.968;2023-02-15T03:22:12;1.60;99.90
22288;DHT22;11312;51.464;6.968;2023-02-15T03:24:51;1.60;99.90
22288;DHT22;11312;51.464;6.968;2023-02-15T03:27:22;1.70;99.90
22288;DHT22;11312;51.464;6.968;2023-02-15T03:29:55;1.70;99.90
22288;DHT22;11312;51.464;6.968;2023-02-15T03:32:23;1.60;99.90
22288;DHT22;11312;51.464;6.968;2023-02-15T03:34:50;1.60;99.90
22288;DHT22;11312;51.464;6.968;2023-02-15T03:40:08;1.60;99.90
22288;DHT22;11312;51.464;6.968;2023-02-15T03:45:38;1.50;99.90
22288;DHT22;11312;51.464;6.968;2023-02-15T03:48:26;1.50;99.90
22288;DHT22;11312;51.464;6.968;2023-02-15T03:50:58;1.60;99.90
22288;DHT22;11312;51.464;6.968;2023-02-15T03:53:46;1.50;99.90
22288;DHT22;11312;51.464;6.968;2023-02-15T03:56:12;1.50;99.90
22288;DHT22;11312;51.464;6.968;2023-02-15T03:58:38;1.50;99.90
22288;DHT22;11312;51.464;6.968;2023-02-15T04:01:40;1.50;99.90
22288;DHT22;11312;51.464;6.968;2023-02-15T04:04:16;1.60;99.90
22288;DHT22;11312;51.464;6.968;2023-02-15T04:06:43;1.50;99.90
22288;DHT22;11312;51.464;6.968;2023-02-15T04:09:09;1.50;99.90
22288;DHT22;11312;51.464;6.968;2023-02-15T04:11:53;1.40;99.90
22288;DHT22;11312;51.464;6.968;2023-02-15T04:14:19;1.40;99.90
22288;DHT22;11312;51.464;6.968;2023-02-15T04:17:06;1.40;99.90
22288;DHT22;11312;51.464;6.968;2023-02-15T04:19:32;1.40;99.90
22288;DHT22;11312;51.464;6.968;2023-02-15T04:22:16;1.40;99.90
22288;DHT22;11312;51.464;6.968;2023-02-15T04:25:00;1.40;99.90
22288;DHT22;11312;51.464;6.968;2023-02-15T04:27:49;1.30;99.90
22288;DHT22;11312;51.464;6.968;2023-02-15T04:30:17;1.40;99.90
22288;DHT22;11312;51.464;6.968;2023-02-15T04:32:43;1.30;99.90
22288;DHT22;11312;51.464;6.968;2023-02-15T04:35:09;1.40;99.90
22288;DHT22;11312;51.464;6.968;2023-02-15T04:37:35;1.40;99.90
22288;DHT22;11312;51.464;6.968;2023-02-15T04:40:01;1.30;99.90
22288;DHT22;11312;51.464;6.968;2023-02-15T04:42:27;1.30;99.90
22288;DHT22;11312;51.464;6.968;2023-02-15T04:44:54;1.30;99.90
22288;DHT22;11312;51.464;6.968;2023-02-15T04:47:19;1.30;99.90
22288;DHT22;11312;51.464;6.968;2023-02-15T04:49:45;1.30;99.90
22288;DHT22;11312;51.464;6.968;2023-02-15T04:52:10;1.20;99.90
22288;DHT22;11312;51.464;6.968;2023-02-15T04:54:36;1.20;99.90
22288;DHT22;11312;51.464;6.968;2023-02-15T04:57:04;1.20;99.90
22288;DHT22;11312;51.464;6.968;2023-02-15T04:59:30;1.20;99.90
22288;DHT22;11312;51.464;6.968;2023-02-15T05:01:55;1.20;99.90
22288;DHT22;11312;51.464;6.968;2023-02-15T05:04:21;1.20;99.90
22288;DHT22;11312;51.464;6.968;2023-02-15T05:06:47;1.20;99.90
22288;DHT22;11312;51.464;6.968;2023-02-15T05:09:12;1.20;99.90
22288;DHT22;11312;51.464;6.968;2023-02-15T05:11:38;1.20;99.90
22288;DHT22;11312;51.464;6.968;2023-02-15T05:14:04;1.20;99.90
22288;DHT22;11312;51.464;6.968;2023-02-15T05:16:29;1.20;99.90
22288;DHT22;11312;51.464;6.968;2023-02-15T05:18:55;1.20;99.90
22288;DHT22;11312;51.464;6.968;2023-02-15T05:21:21;1.20;99.90
22288;DHT22;11312;51.464;6.968;2023-02-15T05:23:46;1.10;99.90
22288;DHT22;11312;51.464;6.968;2023-02-15T05:26:14;1.20;99.90
22288;DHT22;11312;51.464;6.968;2023-02-15T05:28:59;1.20;99.90
22288;DHT22;11312;51.464;6.968;2023-02-15T05:31:25;1.20;99.90
22288;DHT22;11312;51.464;6.968;2023-02-15T05:33:50;1.20;99.90
22288;DHT22;11312;51.464;6.968;2023-02-15T05:36:16;1.20;99.90
22288;DHT22;11312;51.464;6.968;2023-02-15T05:38:42;1.10;99.90
22288;DHT22;11312;51.464;6.968;2023-02-15T05:41:09;1.10;99.90
22288;DHT22;11312;51.464;6.968;2023-02-15T05:43:35;1.10;99.90
22288;DHT22;11312;51.464;6.968;2023-02-15T05:46:02;1.10;99.90
22288;DHT22;11312;51.464;6.968;2023-02-15T05:48:28;1.10;99.90
22288;DHT22;11312;51.464;6.968;2023-02-15T05:50:58;1.10;99.90
22288;DHT22;11312;51.464;6.968;2023-02-15T05:53:25;1.10;99.90
22288;DHT22;11312;51.464;6.968;2023-02-15T05:55:51;1.00;99.90
22288;DHT22;11312;51.464;6.968;2023-02-15T05:58:17;1.00;99.90
22288;DHT22;11312;51.464;6.968;2023-02-15T06:00:43;1.00;99.90
22288;DHT22;11312;51.464;6.968;2023-02-15T06:03:08;1.00;99.90
22288;DHT22;11312;51.464;6.968;2023-02-15T06:05:34;1.00;99.90
22288;DHT22;11312;51.464;6.968;2023-02-15T06:07:59;1.20;99.90
22288;DHT22;11312;51.464;6.968;2023-02-15T06:10:25;1.00;99.90
22288;DHT22;11312;51.464;6.968;2023-02-15T06:12:51;1.00;99.90
22288;DHT22;11312;51.464;6.968;2023-02-15T06:15:16;1.00;99.90
22288;DHT22;11312;51.464;6.968;2023-02-15T06:17:42;1.00;99.90
22288;DHT22;11312;51.464;6.968;2023-02-15T06:20:08;1.00;99.90
22288;DHT22;11312;51.464;6.968;2023-02-15T06:22:34;1.00;99.90
22288;DHT22;11312;51.464;6.968;2023-02-15T06:25:00;1.00;99.90
22288;DHT22;11312;51.464;6.968;2023-02-15T06:27:25;1.00;99.90
22288;DHT22;11312;51.464;6.968;2023-02-15T06:29:51;1.00;99.90
22288;DHT22;11312;51.464;6.968;2023-02-15T06:32:16;0.90;99.90
22288;DHT22;11312;51.464;6.968;2023-02-15T06:34:42;0.90;99.90
22288;DHT22;11312;51.464;6.968;2023-02-15T06:37:08;1.00;99.90
22288;DHT22;11312;51.464;6.968;2023-02-15T06:39:34;0.90;99.90
22288;DHT22;11312;51.464;6.968;2023-02-15T06:41:59;0.90;99.90
22288;DHT22;11312;51.464;6.968;2023-02-15T06:44:25;0.90;99.90
22288;DHT22;11312;51.464;6.968;2023-02-15T06:46:51;0.80;99.90
22288;DHT22;11312;51.464;6.968;2023-02-15T06:49:16;0.90;99.90
22288;DHT22;11312;51.464;6.968;2023-02-15T06:51:42;0.90;99.90
22288;DHT22;11312;51.464;6.968;2023-02-15T06:54:07;0.90;99.90
22288;DHT22;11312;51.464;6.968;2023-02-15T06:56:33;0.90;99.90
22288;DHT22;11312;51.464;6.968;2023-02-15T06:58:59;0.90;99.90
22288;DHT22;11312;51.464;6.968;2023-02-15T07:01:24;1.00;99.90
22288;DHT22;11312;51.464;6.968;2023-02-15T07:03:50;1.10;99.90
22288;DHT22;11312;51.464;6.968;2023-02-15T07:06:16;2.10;99.90
22288;DHT22;11312;51.464;6.968;2023-02-15T07:08:41;1.10;99.90
22288;DHT22;11312;51.464;6.968;2023-02-15T07:11:07;1.20;99.90
22288;DHT22;11312;51.464;6.968;2023-02-15T07:13:51;1.20;99.90
22288;DHT22;11312;51.464;6.968;2023-02-15T07:16:18;1.10;99.90
22288;DHT22;11312;51.464;6.968;2023-02-15T07:18:44;1.10;99.90
22288;DHT22;11312;51.464;6.968;2023-02-15T07:21:10;1.20;99.90
22288;DHT22;11312;51.464;6.968;2023-02-15T07:23:37;1.30;99.90
22288;DHT22;11312;51.464;6.968;2023-02-15T07:26:04;1.30;99.90
22288;DHT22;11312;51.464;6.968;2023-02-15T07:28:33;1.30;99.90
22288;DHT22;11312;51.464;6.968;2023-02-15T07:31:01;1.30;99.90
22288;DHT22;11312;51.464;6.968;2023-02-15T07:33:27;1.40;99.90
22288;DHT22;11312;51.464;6.968;2023-02-15T07:35:56;1.40;99.90
22288;DHT22;11312;51.464;6.968;2023-02-15T07:38:29;1.50;99.90
22288;DHT22;11312;51.464;6.968;2023-02-15T07:41:02;1.50;99.90
22288;DHT22;11312;51.464;6.968;2023-02-15T07:43:29;1.50;99.90
22288;DHT22;11312;51.464;6.968;2023-02-15T07:45:58;1.50;99.90
22288;DHT22;11312;51.464;6.968;2023-02-15T07:48:24;1.60;99.90
22288;DHT22;11312;51.464;6.968;2023-02-15T07:50:50;1.60;99.90
22288;DHT22;11312;51.464;6.968;2023-02-15T07:53:15;1.70;99.90
22288;DHT22;11312;51.464;6.968;2023-02-15T07:55:41;1.80;99.90
22288;DHT22;11312;51.464;6.968;2023-02-15T07:58:07;1.80;99.90
22288;DHT22;11312;51.464;6.968;2023-02-15T08:00:32;1.90;99.90
22288;DHT22;11312;51.464;6.968;2023-02-15T08:03:18;1.80;99.90
22288;DHT22;11312;51.464;6.968;2023-02-15T08:05:44;1.90;99.90
22288;DHT22;11312;51.464;6.968;2023-02-15T08:08:11;2.00;99.90
22288;DHT22;11312;51.464;6.968;2023-02-15T08:11:19;2.10;99.90
22288;DHT22;11312;51.464;6.968;2023-02-15T08:13:53;2.20;99.90
22288;DHT22;11312;51.464;6.968;2023-02-15T08:16:32;2.30;99.90
22288;DHT22;11312;51.464;6.968;2023-02-15T08:19:00;2.30;99.90
22288;DHT22;11312;51.464;6.968;2023-02-15T08:21:28;2.80;99.90
22288;DHT22;11312;51.464;6.968;2023-02-15T08:23:55;3.30;99.90
22288;DHT22;11312;51.464;6.968;2023-02-15T08:26:21;3.70;99.90
22288;DHT22;11312;51.464;6.968;2023-02-15T08:28:47;3.90;99.90
22288;DHT22;11312;51.464;6.968;2023-02-15T08:31:14;3.90;56.80
22288;DHT22;11312;51.464;6.968;2023-02-15T08:33:41;3.90;1.00
22288;DHT22;11312;51.464;6.968;2023-02-15T08:36:16;4.00;1.00
22288;DHT22;11312;51.464;6.968;2023-02-15T08:38:43;4.00;1.00
22288;DHT22;11312;51.464;6.968;2023-02-15T08:41:19;4.20;1.00
22288;DHT22;11312;51.464;6.968;2023-02-15T08:43:48;4.40;1.00
22288;DHT22;11312;51.464;6.968;2023-02-15T08:46:15;4.40;1.00
22288;DHT22;11312;51.464;6.968;2023-02-15T08:48:42;4.30;1.00
22288;DHT22;11312;51.464;6.968;2023-02-15T08:51:18;4.20;1.00
22288;DHT22;11312;51.464;6.968;2023-02-15T08:53:46;4.30;7.70
22288;DHT22;11312;51.464;6.968;2023-02-15T08:56:14;4.30;69.50
22288;DHT22;11312;51.464;6.968;2023-02-15T08:58:40;4.50;99.30
22288;DHT22;11312;51.464;6.968;2023-02-15T09:03:35;4.30;30.90
22288;DHT22;11312;51.464;6.968;2023-02-15T09:06:02;4.50;99.90
22288;DHT22;11312;51.464;6.968;2023-02-15T09:08:28;4.50;56.90
22288;DHT22;11312;51.464;6.968;2023-02-15T09:10:54;4.70;99.90
22288;DHT22;11312;51.464;6.968;2023-02-15T09:13:20;4.80;83.50
22288;DHT22;11312;51.464;6.968;2023-02-15T09:15:46;5.40;1.00
22288;DHT22;11312;51.464;6.968;2023-02-15T09:18:12;6.80;99.90
22288;DHT22;11312;51.464;6.968;2023-02-15T09:20:43;7.80;1.00
22288;DHT22;11312;51.464;6.968;2023-02-15T09:23:10;9.70;99.90
22288;DHT22;11312;51.464;6.968;2023-02-15T09:25:35;12.20;99.90
22288;DHT22;11312;51.464;6.968;2023-02-15T09:28:01;13.90;99.90
22288;DHT22;11312;51.464;6.968;2023-02-15T09:30:26;13.20;1.00
22288;DHT22;11312;51.464;6.968;2023-02-15T09:32:52;13.50;1.00
22288;DHT22;11312;51.464;6.968;2023-02-15T09:35:18;11.30;99.90
22288;DHT22;11312;51.464;6.968;2023-02-15T09:37:43;11.30;99.90
22288;DHT22;11312;51.464;6.968;2023-02-15T09:40:12;11.20;1.00
22288;DHT22;11312;51.464;6.968;2023-02-15T09:43:08;11.50;1.00
22288;DHT22;11312;51.464;6.968;2023-02-15T09:48:39;12.10;1.00
22288;DHT22;11312;51.464;6.968;2023-02-15T09:51:37;12.40;99.90
22288;DHT22;11312;51.464;6.968;2023-02-15T09:54:42;12.50;99.90
22288;DHT22;11312;51.464;6.968;2023-02-15T09:57:37;12.50;1.00
22288;DHT22;11312;51.464;6.968;2023-02-15T10:14:12;13.70;1.00
22288;DHT22;11312;51.464;6.968;2023-02-15T10:24:27;14.00;1.00
22288;DHT22;11312;51.464;6.968;2023-02-15T10:26:58;13.80;1.00
22288;DHT22;11312;51.464;6.968;2023-02-15T10:34:39;14.10;1.00
22288;DHT22;11312;51.464;6.968;2023-02-15T10:37:43;14.40;1.00
22288;DHT22;11312;51.464;6.968;2023-02-15T10:45:48;14.00;1.00
22288;DHT22;11312;51.464;6.968;2023-02-15T10:50:49;14.10;1.00
22288;DHT22;11312;51.464;6.968;2023-02-15T10:56:20;13.80;1.00
22288;DHT22;11312;51.464;6.968;2023-02-15T10:59:01;14.00;1.00
22288;DHT22;11312;51.464;6.968;2023-02-15T11:07:30;14.40;1.00
22288;DHT22;11312;51.464;6.968;2023-02-15T11:10:22;15.10;1.00
22288;DHT22;11312;51.464;6.968;2023-02-15T11:12:50;15.30;1.00
22288;DHT22;11312;51.464;6.968;2023-02-15T11:17:46;15.40;1.00
22288;DHT22;11312;51.464;6.968;2023-02-15T11:20:25;16.20;1.00
22288;DHT22;11312;51.464;6.968;2023-02-15T11:22:53;16.50;1.00
22288;DHT22;11312;51.464;6.968;2023-02-15T11:27:48;16.40;1.00
22288;DHT22;11312;51.464;6.968;2023-02-15T11:30:19;16.30;1.00
22288;DHT22;11312;51.464;6.968;2023-02-15T11:32:53;16.70;1.00
22288;DHT22;11312;51.464;6.968;2023-02-15T11:35:36;16.70;1.00
22288;DHT22;11312;51.464;6.968;2023-02-15T11:38:18;17.00;1.00
22288;DHT22;11312;51.464;6.968;2023-02-15T11:40:52;17.40;1.00
22288;DHT22;11312;51.464;6.968;2023-02-15T11:43:39;18.80;1.00
22288;DHT22;11312;51.464;6.968;2023-02-15T11:46:10;18.90;1.00
22288;DHT22;11312;51.464;6.968;2023-02-15T11:48:36;18.80;1.00
22288;DHT22;11312;51.464;6.968;2023-02-15T11:51:02;19.90;1.00
22288;DHT22;11312;51.464;6.968;2023-02-15T11:53:32;19.80;1.00
22288;DHT22;11312;51.464;6.968;2023-02-15T11:55:59;19.70;99.90
22288;DHT22;11312;51.464;6.968;2023-02-15T12:01:24;21.30;1.00
22288;DHT22;11312;51.464;6.968;2023-02-15T12:03:56;19.70;99.90
22288;DHT22;11312;51.464;6.968;2023-02-15T12:06:33;20.70;99.90
22288;DHT22;11312;51.464;6.968;2023-02-15T12:11:48;22.10;99.90
22288;DHT22;11312;51.464;6.968;2023-02-15T12:14:13;21.00;99.90
22288;DHT22;11312;51.464;6.968;2023-02-15T12:16:50;23.10;99.90
22288;DHT22;11312;51.464;6.968;2023-02-15T12:19:43;23.20;99.90
22288;DHT22;11312;51.464;6.968;2023-02-15T12:22:21;24.10;99.90
22288;DHT22;11312;51.464;6.968;2023-02-15T12:24:51;23.90;99.90
22288;DHT22;11312;51.464;6.968;2023-02-15T12:27:29;24.40;99.90
22288;DHT22;11312;51.464;6.968;2023-02-15T12:30:03;25.70;99.90
22288;DHT22;11312;51.464;6.968;2023-02-15T12:32:35;24.50;99.90
22288;DHT22;11312;51.464;6.968;2023-02-15T12:35:13;26.00;99.90
22288;DHT22;11312;51.464;6.968;2023-02-15T12:37:52;26.30;99.90
22288;DHT22;11312;51.464;6.968;2023-02-15T12:40:22;25.70;99.90
22288;DHT22;11312;51.464;6.968;2023-02-15T12:42:48;26.40;99.90
22288;DHT22;11312;51.464;6.968;2023-02-15T12:45:34;25.90;99.90
22288;DHT22;11312;51.464;6.968;2023-02-15T12:50:40;25.50;99.90
22288;DHT22;11312;51.464;6.968;2023-02-15T12:53:16;26.20;99.90
22288;DHT22;11312;51.464;6.968;2023-02-15T12:56:10;26.30;99.90
22288;DHT22;11312;51.464;6.968;2023-02-15T12:58:38;24.70;99.90
22288;DHT22;11312;51.464;6.968;2023-02-15T13:01:15;24.70;99.90
22288;DHT22;11312;51.464;6.968;2023-02-15T13:03:58;24.90;99.90
22288;DHT22;11312;51.464;6.968;2023-02-15T13:06:27;26.20;99.90
22288;DHT22;11312;51.464;6.968;2023-02-15T13:08:56;27.10;99.90
22288;DHT22;11312;51.464;6.968;2023-02-15T13:11:29;25.90;99.90
22288;DHT22;11312;51.464;6.968;2023-02-15T13:14:07;24.90;99.90
22288;DHT22;11312;51.464;6.968;2023-02-15T13:16:44;23.60;99.90
22288;DHT22;11312;51.464;6.968;2023-02-15T13:21:40;25.10;99.90
22288;DHT22;11312;51.464;6.968;2023-02-15T13:26:43;25.50;99.90
22288;DHT22;11312;51.464;6.968;2023-02-15T13:29:26;24.70;99.90
22288;DHT22;11312;51.464;6.968;2023-02-15T13:31:53;24.30;99.90
22288;DHT22;11312;51.464;6.968;2023-02-15T13:36:59;25.30;99.90
22288;DHT22;11312;51.464;6.968;2023-02-15T13:39:47;23.30;99.90
22288;DHT22;11312;51.464;6.968;2023-02-15T13:42:19;24.20;99.90
22288;DHT22;11312;51.464;6.968;2023-02-15T13:47:49;24.00;99.90
22288;DHT22;11312;51.464;6.968;2023-02-15T13:53:12;25.90;99.90
22288;DHT22;11312;51.464;6.968;2023-02-15T14:01:01;26.60;99.90
22288;DHT22;11312;51.464;6.968;2023-02-15T14:06:26;27.50;99.90
22288;DHT22;11312;51.464;6.968;2023-02-15T14:17:46;27.60;99.90
22288;DHT22;11312;51.464;6.968;2023-02-15T14:26:26;25.60;99.90
22288;DHT22;11312;51.464;6.968;2023-02-15T14:31:54;23.20;99.90
22288;DHT22;11312;51.464;6.968;2023-02-15T14:36:54;22.70;99.90
22288;DHT22;11312;51.464;6.968;2023-02-15T14:39:55;22.40;99.90
22288;DHT22;11312;51.464;6.968;2023-02-15T14:43:46;21.20;99.90
22288;DHT22;11312;51.464;6.968;2023-02-15T14:46:02;20.60;99.90
22288;DHT22;11312;51.464;6.968;2023-02-15T14:48:37;20.30;99.90
22288;DHT22;11312;51.464;6.968;2023-02-15T14:51:04;20.00;99.90
22288;DHT22;11312;51.464;6.968;2023-02-15T14:56:25;18.90;99.90
22288;DHT22;11312;51.464;6.968;2023-02-15T15:01:35;17.80;99.90
22288;DHT22;11312;51.464;6.968;2023-02-15T15:06:35;16.70;99.90
22288;DHT22;11312;51.464;6.968;2023-02-15T15:11:43;16.30;99.90
22288;DHT22;11312;51.464;6.968;2023-02-15T15:14:10;16.30;99.90
22288;DHT22;11312;51.464;6.968;2023-02-15T15:19:03;16.30;99.90
22288;DHT22;11312;51.464;6.968;2023-02-15T15:36:10;16.10;99.90
22288;DHT22;11312;51.464;6.968;2023-02-15T15:47:40;14.90;99.90
22288;DHT22;11312;51.464;6.968;2023-02-15T15:49:46;14.70;99.90
22288;DHT22;11312;51.464;6.968;2023-02-15T15:52:21;14.30;99.90
22288;DHT22;11312;51.464;6.968;2023-02-15T15:54:55;14.00;99.90
22288;DHT22;11312;51.464;6.968;2023-02-15T15:59:52;13.80;99.90
22288;DHT22;11312;51.464;6.968;2023-02-15T16:02:19;13.60;99.90
22288;DHT22;11312;51.464;6.968;2023-02-15T16:04:45;13.50;1.00
22288;DHT22;11312;51.464;6.968;2023-02-15T16:07:23;13.60;99.90
22288;DHT22;11312;51.464;6.968;2023-02-15T16:09:57;13.50;99.90
22288;DHT22;11312;51.464;6.968;2023-02-15T16:12:26;13.40;99.90
22288;DHT22;11312;51.464;6.968;2023-02-15T16:14:52;13.20;1.00
22288;DHT22;11312;51.464;6.968;2023-02-15T16:17:31;13.00;1.00
22288;DHT22;11312;51.464;6.968;2023-02-15T16:20:11;12.90;1.00
22288;DHT22;11312;51.464;6.968;2023-02-15T16:22:39;12.70;1.00
22288;DHT22;11312;51.464;6.968;2023-02-15T16:28:06;12.60;1.00
22288;DHT22;11312;51.464;6.968;2023-02-15T16:30:36;12.60;1.00
22288;DHT22;11312;51.464;6.968;2023-02-15T16:33:12;12.40;1.00
22288;DHT22;11312;51.464;6.968;2023-02-15T16:35:54;12.40;1.00
22288;DHT22;11312;51.464;6.968;2023-02-15T16:41:21;12.10;1.00
22288;DHT22;11312;51.464;6.968;2023-02-15T16:43:49;11.90;1.00
22288;DHT22;11312;51.464;6.968;2023-02-15T16:46:33;11.80;1.00
22288;DHT22;11312;51.464;6.968;2023-02-15T16:49:05;11.70;1.00
22288;DHT22;11312;51.464;6.968;2023-02-15T16:51:34;11.50;1.00
22288;DHT22;11312;51.464;6.968;2023-02-15T16:54:07;11.40;1.00
22288;DHT22;11312;51.464;6.968;2023-02-15T16:56:33;11.40;20.40
22288;DHT22;11312;51.464;6.968;2023-02-15T16:59:00;11.30;25.20
22288;DHT22;11312;51.464;6.968;2023-02-15T17:01:29;11.20;78.20
22288;DHT22;11312;51.464;6.968;2023-02-15T17:04:34;11.00;36.30
22288;DHT22;11312;51.464;6.968;2023-02-15T17:07:18;10.90;99.90
22288;DHT22;11312;51.464;6.968;2023-02-15T17:09:51;10.90;99.90
22288;DHT22;11312;51.464;6.968;2023-02-15T17:12:46;10.80;99.90
22288;DHT22;11312;51.464;6.968;2023-02-15T17:15:33;10.80;99.90
22288;DHT22;11312;51.464;6.968;2023-02-15T17:18:21;10.70;99.90
22288;DHT22;11312;51.464;6.968;2023-02-15T17:20:51;10.80;99.90
22288;DHT22;11312;51.464;6.968;2023-02-15T17:23:35;10.80;99.90
22288;DHT22;11312;51.464;6.968;2023-02-15T17:26:11;10.60;99.90
22288;DHT22;11312;51.464;6.968;2023-02-15T17:28:46;10.60;1.00
22288;DHT22;11312;51.464;6.968;2023-02-15T17:31:13;10.50;99.90
22288;DHT22;11312;51.464;6.968;2023-02-15T17:33:39;10.40;99.90
22288;DHT22;11312;51.464;6.968;2023-02-15T17:36:16;10.20;1.00
22288;DHT22;11312;51.464;6.968;2023-02-15T17:41:26;10.10;1.00
22288;DHT22;11312;51.464;6.968;2023-02-15T17:43:52;10.10;1.00
22288;DHT22;11312;51.464;6.968;2023-02-15T17:46:18;10.00;1.00
22288;DHT22;11312;51.464;6.968;2023-02-15T17:48:48;10.00;1.00
22288;DHT22;11312;51.464;6.968;2023-02-15T17:51:15;10.10;1.00
22288;DHT22;11312;51.464;6.968;2023-02-15T17:53:42;10.10;1.00
22288;DHT22;11312;51.464;6.968;2023-02-15T17:56:32;10.10;1.00
22288;DHT22;11312;51.464;6.968;2023-02-15T17:58:58;10.20;99.90
22288;DHT22;11312;51.464;6.968;2023-02-15T18:01:23;10.10;1.00
22288;DHT22;11312;51.464;6.968;2023-02-15T18:04:11;10.00;1.00
22288;DHT22;11312;51.464;6.968;2023-02-15T18:06:56;10.10;1.00
22288;DHT22;11312;51.464;6.968;2023-02-15T18:09:41;10.20;1.00
22288;DHT22;11312;51.464;6.968;2023-02-15T18:12:29;10.00;99.90
22288;DHT22;11312;51.464;6.968;2023-02-15T18:14:56;9.90;1.00
22288;DHT22;11312;51.464;6.968;2023-02-15T18:17:31;9.90;1.00
22288;DHT22;11312;51.464;6.968;2023-02-15T18:19:57;10.00;1.00
22288;DHT22;11312;51.464;6.968;2023-02-15T18:22:23;10.00;1.00
22288;DHT22;11312;51.464;6.968;2023-02-15T18:24:49;10.10;99.90
22288;DHT22;11312;51.464;6.968;2023-02-15T18:27:15;9.90;99.90
22288;DHT22;11312;51.464;6.968;2023-02-15T18:29:42;9.90;99.90
22288;DHT22;11312;51.464;6.968;2023-02-15T18:32:13;10.00;99.90
22288;DHT22;11312;51.464;6.968;2023-02-15T18:34:42;9.90;99.90
22288;DHT22;11312;51.464;6.968;2023-02-15T18:37:15;9.90;99.90
22288;DHT22;11312;51.464;6.968;2023-02-15T18:39:51;9.70;1.00
22288;DHT22;11312;51.464;6.968;2023-02-15T18:42:28;9.80;1.00
22288;DHT22;11312;51.464;6.968;2023-02-15T18:45:03;9.80;99.90
22288;DHT22;11312;51.464;6.968;2023-02-15T18:47:31;9.70;99.90
22288;DHT22;11312;51.464;6.968;2023-02-15T18:49:57;9.70;99.90
22288;DHT22;11312;51.464;6.968;2023-02-15T18:52:26;9.80;99.90
22288;DHT22;11312;51.464;6.968;2023-02-15T18:54:55;9.80;99.90
22288;DHT22;11312;51.464;6.968;2023-02-15T18:57:22;9.90;99.90
22288;DHT22;11312;51.464;6.968;2023-02-15T18:59:47;9.70;99.90
22288;DHT22;11312;51.464;6.968;2023-02-15T19:02:15;9.70;99.90